createdAt,value
2023-05-13T00:02:14.021Z,9.10
2023-05-13T00:04:41.933Z,9.10
2023-05-13T00:07:11.082Z,9.00
2023-05-13T00:09:38.847Z,8.90
2023-05-13T00:12:07.021Z,8.90
2023-05-13T00:14:34.782Z,8.90
2023-05-13T00:17:04.737Z,8.90
2023-05-13T00:19:32.619Z,8.80
2023-05-13T00:22:00.389Z,8.80
2023-05-13T00:24:29.520Z,8.80
2023-05-13T00:26:57.346Z,8.90
2023-05-13T00:29:25.129Z,8.70
2023-05-13T00:31:52.912Z,8.70
2023-05-13T00:34:20.857Z,8.70
2023-05-13T00:36:48.629Z,8.60
2023-05-13T00:39:16.673Z,8.60
2023-05-13T00:41:45.948Z,8.60
2023-05-13T00:44:14.555Z,8.60
2023-05-13T00:46:43.260Z,8.60
2023-05-13T00:49:11.269Z,8.60
2023-05-13T00:51:39.465Z,8.60
2023-05-13T00:54:07.242Z,8.60
2023-05-13T00:56:34.981Z,8.60
2023-05-13T00:59:04.197Z,8.60
2023-05-13T01:01:39.370Z,8.50
2023-05-13T01:04:18.423Z,8.50
2023-05-13T01:06:53.142Z,8.60
2023-05-13T01:09:29.449Z,8.60
2023-05-13T01:12:04.813Z,8.60
2023-05-13T01:14:35.350Z,8.60
2023-05-13T01:17:08.889Z,8.60
2023-05-13T01:19:43.335Z,8.70
2023-05-13T01:22:12.474Z,8.70
2023-05-13T01:24:40.306Z,8.70
2023-05-13T01:27:08.569Z,8.70
2023-05-13T01:29:37.559Z,8.70
2023-05-13T01:32:06.701Z,8.70
2023-05-13T01:34:35.438Z,8.80
2023-05-13T01:37:03.348Z,8.80
2023-05-13T01:39:33.457Z,8.80
2023-05-13T01:42:01.255Z,8.80
2023-05-13T01:44:29.191Z,8.90
2023-05-13T01:46:57.372Z,8.90
2023-05-13T01:49:25.800Z,9.00
2023-05-13T01:51:53.568Z,9.00
2023-05-13T01:54:23.246Z,9.10
2023-05-13T01:56:52.794Z,9.10
2023-05-13T01:59:20.539Z,9.10
2023-05-13T02:01:48.390Z,9.10
2023-05-13T02:04:16.593Z,9.10
2023-05-13T02:06:44.401Z,9.00
2023-05-13T02:09:12.164Z,9.00
2023-05-13T02:11:39.950Z,9.00
2023-05-13T02:14:09.055Z,8.90
2023-05-13T02:16:36.853Z,8.90
2023-05-13T02:19:04.852Z,8.90
2023-05-13T02:21:32.926Z,8.90
2023-05-13T02:24:00.877Z,8.90
2023-05-13T02:26:28.698Z,8.90
2023-05-13T02:28:56.519Z,8.90
2023-05-13T02:31:25.716Z,8.90
2023-05-13T02:33:53.971Z,9.00
2023-05-13T02:36:21.748Z,8.90
2023-05-13T02:38:49.509Z,8.90
2023-05-13T02:41:17.291Z,9.00
2023-05-13T02:43:45.023Z,9.00
2023-05-13T02:46:12.869Z,9.00
2023-05-13T02:48:42.057Z,9.10
2023-05-13T02:51:09.950Z,9.10
2023-05-13T02:53:37.705Z,9.10
2023-05-13T02:56:05.930Z,9.20
2023-05-13T02:58:33.970Z,9.20
2023-05-13T03:01:01.785Z,9.20
2023-05-13T03:03:29.957Z,9.20
2023-05-13T03:05:59.394Z,9.20
2023-05-13T03:08:27.168Z,9.20
2023-05-13T03:10:55.402Z,9.20
2023-05-13T03:13:23.205Z,9.20
2023-05-13T03:15:50.975Z,8.80
2023-05-13T03:18:18.752Z,9.30
2023-05-13T03:20:46.515Z,9.30
2023-05-13T03:23:15.636Z,9.30
2023-05-13T03:25:43.402Z,9.30
2023-05-13T03:28:11.139Z,9.30
2023-05-13T03:30:38.923Z,9.20
2023-05-13T03:33:06.788Z,9.20
2023-05-13T03:35:34.564Z,9.20
2023-05-13T03:38:02.343Z,9.20
2023-05-13T03:40:31.539Z,9.20
2023-05-13T03:42:59.342Z,9.20
2023-05-13T03:45:27.174Z,9.20
2023-05-13T03:47:55.059Z,9.30
2023-05-13T03:50:23.157Z,9.30
2023-05-13T03:52:51.110Z,9.30
2023-05-13T03:55:18.875Z,9.30
2023-05-13T03:57:49.432Z,9.40
2023-05-13T04:00:17.618Z,9.40
2023-05-13T04:02:45.500Z,9.40
2023-05-13T04:05:14.209Z,9.40
2023-05-13T04:07:42.466Z,9.40
2023-05-13T04:10:15.234Z,9.50
2023-05-13T04:12:43.448Z,9.50
2023-05-13T04:15:12.906Z,9.50
2023-05-13T04:17:40.688Z,9.60
2023-05-13T04:20:10.773Z,9.60
2023-05-13T04:22:38.562Z,9.70
2023-05-13T04:25:06.966Z,9.80
2023-05-13T04:27:34.693Z,9.80
2023-05-13T04:30:02.464Z,9.90
2023-05-13T04:32:31.766Z,9.90
2023-05-13T04:34:59.620Z,10.00
2023-05-13T04:37:27.487Z,10.10
2023-05-13T04:39:55.328Z,10.10
2023-05-13T04:42:23.077Z,10.20
2023-05-13T04:44:50.899Z,10.30
2023-05-13T04:47:19.513Z,10.40
2023-05-13T04:49:48.602Z,10.40
2023-05-13T04:52:16.893Z,10.60
2023-05-13T04:54:44.653Z,10.70
2023-05-13T04:57:12.442Z,10.70
2023-05-13T04:59:40.238Z,10.80
2023-05-13T05:02:08.038Z,10.80
2023-05-13T05:04:35.854Z,10.90
2023-05-13T05:07:05.154Z,10.90
2023-05-13T05:09:32.940Z,10.90
2023-05-13T05:12:00.695Z,10.90
2023-05-13T05:14:28.473Z,11.00
2023-05-13T05:16:56.271Z,11.00
2023-05-13T05:19:24.592Z,11.10
2023-05-13T05:21:52.413Z,11.20
2023-05-13T05:24:21.560Z,11.20
2023-05-13T05:26:49.335Z,11.30
2023-05-13T05:29:17.157Z,11.30
2023-05-13T05:31:45.193Z,11.40
2023-05-13T05:34:13.315Z,11.50
2023-05-13T05:36:41.109Z,11.50
2023-05-13T05:39:08.942Z,11.60
2023-05-13T05:41:38.091Z,11.60
2023-05-13T05:44:06.020Z,11.70
2023-05-13T05:46:34.109Z,11.70
2023-05-13T05:49:03.376Z,11.80
2023-05-13T05:51:31.163Z,11.90
2023-05-13T05:53:58.928Z,11.90
2023-05-13T05:56:26.743Z,12.00
2023-05-13T05:58:55.810Z,12.00
2023-05-13T06:01:23.565Z,12.10
2023-05-13T06:03:53.115Z,12.10
2023-05-13T06:06:22.572Z,12.10
2023-05-13T06:08:50.332Z,12.10
2023-05-13T06:11:18.116Z,12.10
2023-05-13T06:13:45.935Z,12.10
2023-05-13T06:16:15.083Z,12.10
2023-05-13T06:18:43.093Z,12.20
2023-05-13T06:21:10.947Z,12.30
2023-05-13T06:23:38.723Z,12.20
2023-05-13T06:26:06.550Z,12.30
2023-05-13T06:28:34.314Z,12.30
2023-05-13T06:31:02.095Z,12.40
2023-05-13T06:33:31.266Z,12.40
2023-05-13T06:35:59.072Z,12.30
2023-05-13T06:38:26.982Z,12.40
2023-05-13T06:40:54.806Z,12.30
2023-05-13T06:43:22.577Z,12.30
2023-05-13T06:45:50.342Z,12.30
2023-05-13T06:48:18.209Z,12.40
2023-05-13T06:50:47.419Z,12.40
2023-05-13T06:53:15.196Z,12.50
2023-05-13T06:55:42.972Z,12.60
2023-05-13T06:58:11.268Z,12.70
2023-05-13T07:00:40.660Z,12.80
2023-05-13T07:03:08.881Z,12.80
2023-05-13T07:05:37.019Z,12.90
2023-05-13T07:08:08.446Z,12.90
2023-05-13T07:10:36.873Z,13.00
2023-05-13T07:13:04.886Z,13.10
2023-05-13T07:15:32.677Z,13.20
2023-05-13T07:18:00.489Z,13.20
2023-05-13T07:20:28.331Z,13.10
2023-05-13T07:22:56.071Z,13.10
2023-05-13T07:25:25.372Z,13.10
2023-05-13T07:27:53.117Z,13.10
2023-05-13T07:30:21.312Z,13.10
2023-05-13T07:32:49.505Z,13.20
2023-05-13T07:35:18.054Z,13.20
2023-05-13T07:37:46.027Z,13.20
2023-05-13T07:40:14.259Z,13.20
2023-05-13T07:42:43.425Z,13.20
2023-05-13T07:45:11.918Z,13.20
2023-05-13T07:47:40.257Z,13.20
2023-05-13T07:50:09.673Z,13.20
2023-05-13T07:52:38.026Z,13.20
2023-05-13T07:55:06.467Z,13.20
2023-05-13T07:57:34.941Z,13.30
2023-05-13T08:00:04.621Z,13.30
2023-05-13T08:02:34.723Z,13.30
2023-05-13T08:05:02.688Z,13.30
2023-05-13T08:07:30.509Z,13.30
2023-05-13T08:09:58.252Z,13.30
2023-05-13T08:12:26.011Z,13.30
2023-05-13T08:14:53.831Z,13.30
2023-05-13T08:17:23.005Z,13.40
2023-05-13T08:19:50.876Z,13.40
2023-05-13T08:22:18.640Z,13.50
2023-05-13T08:24:46.384Z,13.50
2023-05-13T08:27:14.230Z,13.60
2023-05-13T08:29:41.990Z,13.60
2023-05-13T08:32:11.059Z,13.70
2023-05-13T08:34:41.020Z,13.70
2023-05-13T08:37:08.777Z,13.70
2023-05-13T08:39:36.525Z,13.70
2023-05-13T08:42:05.282Z,13.60
2023-05-13T08:44:36.182Z,13.50
2023-05-13T08:47:13.958Z,13.50
2023-05-13T08:49:43.585Z,13.50
2023-05-13T08:52:11.676Z,13.50
2023-05-13T08:54:40.563Z,13.60
2023-05-13T08:57:08.322Z,13.60
2023-05-13T08:59:36.106Z,13.70
2023-05-13T09:02:05.877Z,13.70
2023-05-13T09:04:37.457Z,13.70
2023-05-13T09:07:07.166Z,13.70
2023-05-13T09:09:35.025Z,13.90
2023-05-13T09:12:03.417Z,13.90
2023-05-13T09:14:32.410Z,13.90
2023-05-13T09:17:01.846Z,14.00
2023-05-13T09:19:29.849Z,14.10
2023-05-13T09:21:58.020Z,14.10
2023-05-13T09:24:27.156Z,14.00
2023-05-13T09:26:54.962Z,14.00
2023-05-13T09:29:24.760Z,14.00
2023-05-13T09:31:54.687Z,14.00
2023-05-13T09:34:27.332Z,14.00
2023-05-13T09:37:03.332Z,14.00
2023-05-13T09:39:34.400Z,13.90
2023-05-13T09:42:04.910Z,13.90
2023-05-13T09:44:33.691Z,13.90
2023-05-13T09:47:02.901Z,14.00
2023-05-13T09:49:33.028Z,14.10
2023-05-13T09:52:00.828Z,14.10
2023-05-13T09:54:37.047Z,14.20
2023-05-13T09:57:05.573Z,14.10
2023-05-13T09:59:33.663Z,14.10
2023-05-13T10:02:04.659Z,14.00
2023-05-13T10:04:32.599Z,14.00
2023-05-13T10:07:03.117Z,13.80
2023-05-13T10:09:35.517Z,13.90
2023-05-13T10:12:08.538Z,13.80
2023-05-13T10:14:38.296Z,13.70
2023-05-13T10:17:07.255Z,13.80
2023-05-13T10:19:35.526Z,13.80
2023-05-13T10:22:03.809Z,13.80
2023-05-13T10:24:32.114Z,13.80
2023-05-13T10:27:01.683Z,13.80
2023-05-13T10:29:31.199Z,13.90
2023-05-13T10:32:00.654Z,13.90
2023-05-13T10:34:31.278Z,13.90
2023-05-13T10:37:14.337Z,13.80
2023-05-13T10:40:20.976Z,13.80
2023-05-13T10:42:57.352Z,13.90
2023-05-13T10:45:28.581Z,14.00
2023-05-13T10:47:57.246Z,13.90
2023-05-13T10:50:26.713Z,13.90
2023-05-13T10:52:58.118Z,13.90
2023-05-13T10:55:27.999Z,13.90
2023-05-13T10:58:10.540Z,13.90
2023-05-13T11:00:40.425Z,13.90
2023-05-13T11:03:29.569Z,13.90
2023-05-13T11:06:04.583Z,13.90
2023-05-13T11:08:39.835Z,13.90
2023-05-13T11:11:30.302Z,13.80
2023-05-13T11:14:09.457Z,13.70
2023-05-13T11:16:38.907Z,13.70
2023-05-13T11:19:21.392Z,13.80
2023-05-13T11:21:51.752Z,13.80
2023-05-13T11:24:20.274Z,13.80
2023-05-13T11:26:50.340Z,13.80
2023-05-13T11:29:30.457Z,13.90
2023-05-13T11:32:00.979Z,14.00
2023-05-13T11:34:30.140Z,14.10
2023-05-13T11:37:09.530Z,14.20
2023-05-13T11:39:39.884Z,14.20
2023-05-13T11:42:08.972Z,14.30
2023-05-13T11:44:37.567Z,14.20
2023-05-13T11:47:07.986Z,14.10
2023-05-13T11:49:39.320Z,14.00
2023-05-13T11:52:10.119Z,14.00
2023-05-13T11:54:46.307Z,14.00
2023-05-13T11:57:20.565Z,14.10
2023-05-13T11:59:56.394Z,14.20
2023-05-13T12:02:27.356Z,14.40
2023-05-13T12:04:55.513Z,14.50
2023-05-13T12:07:24.565Z,14.50
2023-05-13T12:09:52.863Z,14.60
2023-05-13T12:12:21.249Z,14.60
2023-05-13T12:14:51.009Z,14.60
2023-05-13T12:17:19.424Z,14.60
2023-05-13T12:20:17.328Z,14.60
2023-05-13T12:22:53.535Z,14.60
2023-05-13T12:25:41.229Z,14.50
2023-05-13T12:28:10.733Z,14.40
2023-05-13T12:30:39.531Z,14.40
2023-05-13T12:33:13.470Z,14.20
2023-05-13T12:35:42.969Z,14.10
2023-05-13T12:38:16.178Z,14.00
2023-05-13T12:40:44.249Z,14.00
2023-05-13T12:43:13.142Z,14.10
2023-05-13T12:45:44.793Z,14.10
2023-05-13T12:48:13.441Z,14.20
2023-05-13T12:50:42.549Z,14.30
2023-05-13T12:53:10.366Z,14.30
2023-05-13T12:55:39.819Z,14.40
2023-05-13T12:58:11.711Z,14.50
2023-05-13T13:00:39.612Z,14.60
2023-05-13T13:03:07.999Z,14.70
2023-05-13T13:05:36.438Z,14.90
2023-05-13T13:08:06.093Z,15.00
2023-05-13T13:10:34.041Z,15.10
2023-05-13T13:13:01.807Z,15.10
2023-05-13T13:15:29.623Z,15.10
2023-05-13T13:17:57.433Z,15.10
2023-05-13T13:20:25.370Z,15.20
2023-05-13T13:22:54.173Z,15.30
2023-05-13T13:25:23.483Z,15.40
2023-05-13T13:27:51.531Z,15.60
2023-05-13T13:30:19.317Z,15.70
2023-05-13T13:32:47.169Z,15.70
2023-05-13T13:35:14.948Z,15.60
2023-05-13T13:37:42.729Z,15.60
2023-05-13T13:40:11.802Z,15.50
2023-05-13T13:42:44.505Z,15.40
2023-05-13T13:45:13.546Z,15.50
2023-05-13T13:47:41.433Z,15.40
2023-05-13T13:50:09.807Z,15.30
2023-05-13T13:52:37.544Z,15.30
2023-05-13T13:55:06.229Z,15.20
2023-05-13T13:57:34.034Z,15.10
2023-05-13T14:00:03.149Z,15.00
2023-05-13T14:02:31.008Z,14.90
2023-05-13T14:04:58.898Z,14.80
2023-05-13T14:07:26.976Z,14.80
2023-05-13T14:09:54.755Z,14.80
2023-05-13T14:12:22.504Z,14.80
2023-05-13T14:14:50.287Z,14.80
2023-05-13T14:17:20.082Z,14.90
2023-05-13T14:19:51.523Z,14.90
2023-05-13T14:22:19.294Z,15.00
2023-05-13T14:24:47.089Z,14.90
2023-05-13T14:27:15.055Z,14.90
2023-05-13T14:29:42.888Z,14.90
2023-05-13T14:32:10.653Z,14.90
2023-05-13T14:34:39.762Z,14.90
2023-05-13T14:37:08.654Z,14.90
2023-05-13T14:39:36.863Z,15.00
2023-05-13T14:42:05.553Z,15.00
2023-05-13T14:44:33.373Z,15.00
2023-05-13T14:47:01.344Z,15.10
2023-05-13T14:49:29.232Z,15.20
2023-05-13T14:51:58.331Z,15.30
2023-05-13T14:54:26.106Z,15.40
2023-05-13T14:56:53.997Z,15.50
2023-05-13T14:59:21.798Z,15.50
2023-05-13T15:01:49.584Z,15.80
2023-05-13T15:04:17.352Z,16.10
2023-05-13T15:06:45.090Z,16.30
2023-05-13T15:09:14.183Z,16.60
2023-05-13T15:11:42.280Z,16.70
2023-05-13T15:14:10.901Z,16.80
2023-05-13T15:16:38.673Z,16.80
2023-05-13T15:19:08.402Z,16.80
2023-05-13T15:21:36.273Z,16.70
2023-05-13T15:24:04.215Z,16.50
2023-05-13T15:26:33.339Z,16.40
2023-05-13T15:29:01.099Z,16.40
2023-05-13T15:31:28.957Z,16.20
2023-05-13T15:33:56.789Z,16.00
2023-05-13T15:36:24.559Z,15.90
2023-05-13T15:38:52.301Z,15.90
2023-05-13T15:41:20.122Z,15.80
2023-05-13T15:43:49.278Z,15.90
2023-05-13T15:46:17.144Z,15.90
2023-05-13T15:48:44.992Z,16.00
2023-05-13T15:51:12.774Z,16.00
2023-05-13T15:53:40.746Z,16.10
2023-05-13T15:56:08.707Z,16.10
2023-05-13T15:58:36.498Z,16.10
2023-05-13T16:01:06.387Z,16.20
2023-05-13T16:03:35.042Z,16.20
2023-05-13T16:06:03.867Z,16.20
2023-05-13T16:08:31.671Z,16.20
2023-05-13T16:10:59.409Z,16.20
2023-05-13T16:13:27.354Z,16.10
2023-05-13T16:15:55.590Z,15.90
2023-05-13T16:18:24.819Z,15.70
2023-05-13T16:20:52.888Z,15.60
2023-05-13T16:23:20.739Z,15.50
2023-05-13T16:25:48.563Z,15.40
2023-05-13T16:28:16.872Z,15.30
2023-05-13T16:30:44.606Z,15.10
2023-05-13T16:33:14.634Z,15.10
2023-05-13T16:35:43.760Z,15.00
2023-05-13T16:38:11.755Z,15.10
2023-05-13T16:40:39.517Z,15.10
2023-05-13T16:43:07.348Z,15.20
2023-05-13T16:45:35.126Z,15.10
2023-05-13T16:48:02.947Z,15.20
2023-05-13T16:50:31.335Z,15.20
2023-05-13T16:53:08.921Z,15.10
2023-05-13T16:58:43.328Z,15.00
2023-05-13T17:01:09.227Z,15.00
2023-05-13T17:03:37.021Z,14.90
2023-05-13T17:06:07.081Z,14.90
2023-05-13T17:08:36.177Z,14.80
2023-05-13T17:11:04.327Z,14.80
2023-05-13T17:13:32.076Z,14.70
2023-05-13T17:15:59.827Z,14.70
2023-05-13T17:18:27.579Z,14.60
2023-05-13T17:20:55.830Z,14.50
2023-05-13T17:23:23.577Z,14.40
2023-05-13T17:25:52.829Z,14.30
2023-05-13T17:28:20.562Z,14.20
2023-05-13T17:30:48.405Z,14.10
2023-05-13T17:33:16.520Z,14.10
2023-05-13T17:35:44.353Z,14.00
2023-05-13T17:38:12.073Z,13.90
2023-05-13T17:40:39.831Z,13.90
2023-05-13T17:43:10.941Z,13.90
2023-05-13T17:45:38.934Z,13.80
2023-05-13T17:48:07.501Z,13.70
2023-05-13T17:50:35.480Z,13.70
2023-05-13T17:53:03.268Z,13.60
2023-05-13T17:55:31.254Z,13.60
2023-05-13T17:57:59.737Z,13.50
2023-05-13T18:00:28.923Z,13.50
2023-05-13T18:02:56.738Z,13.50
2023-05-13T18:05:24.548Z,13.40
2023-05-13T18:07:52.297Z,13.40
2023-05-13T18:10:20.217Z,13.30
2023-05-13T18:12:48.086Z,13.30
2023-05-13T18:15:15.979Z,13.20
2023-05-13T18:17:45.139Z,13.20
2023-05-13T18:20:13.806Z,13.20
2023-05-13T18:22:41.587Z,13.10
2023-05-13T18:25:10.835Z,13.10
2023-05-13T18:27:38.639Z,13.00
2023-05-13T18:30:07.397Z,13.00
2023-05-13T18:32:35.141Z,13.00
2023-05-13T18:35:04.498Z,13.00
2023-05-13T18:37:32.233Z,13.00
2023-05-13T18:40:00.036Z,12.90
2023-05-13T18:42:28.048Z,12.90
2023-05-13T18:44:55.845Z,12.90
2023-05-13T18:47:23.668Z,12.80
2023-05-13T18:49:51.536Z,12.80
2023-05-13T18:52:21.183Z,12.80
2023-05-13T18:54:48.917Z,12.70
2023-05-13T18:57:16.917Z,12.70
2023-05-13T18:59:44.735Z,12.60
2023-05-13T19:02:12.671Z,12.60
2023-05-13T19:04:40.777Z,12.60
2023-05-13T19:07:08.553Z,12.60
2023-05-13T19:09:37.669Z,12.60
2023-05-13T19:12:05.645Z,12.50
2023-05-13T19:14:33.504Z,12.50
2023-05-13T19:17:01.918Z,12.50
2023-05-13T19:19:29.712Z,12.50
2023-05-13T19:21:57.471Z,12.40
2023-05-13T19:24:25.280Z,12.40
2023-05-13T19:26:54.441Z,12.30
2023-05-13T19:29:22.212Z,12.30
2023-05-13T19:31:49.989Z,12.30
2023-05-13T19:34:17.762Z,12.20
2023-05-13T19:36:46.339Z,12.20
2023-05-13T19:39:14.151Z,12.20
2023-05-13T19:41:41.879Z,12.10
2023-05-13T19:44:10.960Z,12.10
2023-05-13T19:46:38.849Z,12.10
2023-05-13T19:49:06.669Z,12.10
2023-05-13T19:51:34.438Z,12.10
2023-05-13T19:54:02.380Z,12.00
2023-05-13T19:56:31.189Z,12.00
2023-05-13T19:58:58.943Z,12.00
2023-05-13T20:01:28.121Z,11.90
2023-05-13T20:03:56.390Z,11.90
2023-05-13T20:06:24.303Z,11.80
2023-05-13T20:08:52.220Z,11.80
2023-05-13T20:11:19.980Z,11.70
2023-05-13T20:13:47.774Z,11.70
2023-05-13T20:16:15.534Z,11.70
2023-05-13T20:18:44.806Z,11.70
2023-05-13T20:21:12.640Z,11.70
2023-05-13T20:23:41.425Z,11.70
2023-05-13T20:26:09.341Z,11.70
2023-05-13T20:28:37.825Z,11.60
2023-05-13T20:31:05.729Z,11.60
2023-05-13T20:33:33.499Z,11.60
2023-05-13T20:36:02.789Z,11.60
2023-05-13T20:38:30.613Z,11.50
2023-05-13T20:40:58.377Z,11.50
2023-05-13T20:43:26.146Z,11.50
2023-05-13T20:45:53.965Z,11.40
2023-05-13T20:48:21.840Z,11.40
2023-05-13T20:50:49.615Z,11.30
2023-05-13T20:53:18.704Z,11.30
2023-05-13T20:55:46.451Z,11.20
2023-05-13T20:58:14.202Z,11.20
2023-05-13T21:00:41.948Z,11.20
2023-05-13T21:03:09.847Z,11.20
2023-05-13T21:05:37.646Z,11.10
2023-05-13T21:08:05.565Z,11.10
2023-05-13T21:10:34.717Z,11.00
2023-05-13T21:13:02.711Z,11.00
2023-05-13T21:15:30.570Z,10.90
2023-05-13T21:17:58.578Z,10.90
2023-05-13T21:20:26.454Z,10.90
2023-05-13T21:22:54.202Z,10.90
2023-05-13T21:25:22.090Z,10.80
2023-05-13T21:27:51.218Z,10.80
2023-05-13T21:30:18.984Z,10.70
2023-05-13T21:32:46.752Z,10.70
2023-05-13T21:35:14.618Z,10.60
2023-05-13T21:37:42.341Z,10.60
2023-05-13T21:40:10.920Z,10.60
2023-05-13T21:42:38.668Z,10.50
2023-05-13T21:45:08.918Z,10.50
2023-05-13T21:47:36.704Z,10.50
2023-05-13T21:50:07.176Z,10.50
2023-05-13T21:52:35.214Z,10.50
2023-05-13T21:55:03.271Z,10.50
2023-05-13T21:57:31.189Z,10.50
2023-05-13T21:59:58.942Z,10.50
2023-05-13T22:02:28.132Z,10.40
2023-05-13T22:04:55.922Z,10.40
2023-05-13T22:07:23.775Z,10.30
2023-05-13T22:09:51.531Z,10.30
2023-05-13T22:12:19.305Z,10.30
2023-05-13T22:14:47.049Z,10.30
2023-05-13T22:17:14.933Z,10.30
2023-05-13T22:19:44.126Z,10.30
2023-05-13T22:22:11.935Z,10.20
2023-05-13T22:24:39.783Z,10.20
2023-05-13T22:27:07.593Z,10.10
2023-05-13T22:29:35.345Z,10.00
2023-05-13T22:32:03.226Z,10.00
2023-05-13T22:34:31.031Z,10.00
2023-05-13T22:37:00.139Z,10.00
2023-05-13T22:39:27.872Z,9.90
2023-05-13T22:41:55.694Z,9.90
2023-05-13T22:44:23.789Z,9.90
2023-05-13T22:46:52.374Z,9.90
2023-05-13T22:49:20.312Z,9.90
2023-05-13T22:51:48.120Z,9.90
2023-05-13T22:54:17.230Z,9.90
2023-05-13T22:56:45.023Z,9.90
2023-05-13T22:59:12.766Z,9.80
2023-05-13T23:01:40.603Z,9.80
2023-05-13T23:04:08.493Z,9.80
2023-05-13T23:06:36.376Z,9.90
2023-05-13T23:09:04.494Z,9.80
2023-05-13T23:11:35.579Z,9.80
2023-05-13T23:14:03.365Z,9.80
2023-05-13T23:16:31.256Z,9.70
2023-05-13T23:18:59.117Z,9.70
2023-05-13T23:21:26.971Z,9.70
2023-05-13T23:23:54.728Z,9.60
2023-05-13T23:26:24.647Z,9.60
2023-05-13T23:28:53.746Z,9.60
2023-05-13T23:31:21.512Z,9.50
2023-05-13T23:33:49.273Z,9.60
2023-05-13T23:36:17.005Z,9.50
2023-05-13T23:38:44.751Z,9.50
2023-05-13T23:41:12.495Z,9.40
2023-05-13T23:43:40.284Z,9.40
2023-05-13T23:46:09.447Z,9.30
2023-05-13T23:48:37.290Z,9.20
2023-05-13T23:51:05.677Z,9.10
2023-05-13T23:53:33.530Z,9.00
2023-05-13T23:56:01.271Z,8.90
2023-05-13T23:58:29.037Z,8.80
